createdAt,value
2022-08-30T00:00:39.050Z,13.40
2022-08-30T00:03:11.546Z,14.60
2022-08-30T00:05:43.330Z,13.10
2022-08-30T00:08:13.393Z,13.80
2022-08-30T00:10:44.779Z,13.40
2022-08-30T00:13:14.126Z,13.30
2022-08-30T00:15:43.269Z,13.50
2022-08-30T00:18:12.461Z,13.30
2022-08-30T00:20:41.781Z,12.80
2022-08-30T00:23:11.178Z,14.20
2022-08-30T00:25:41.025Z,13.40
2022-08-30T00:28:11.290Z,13.10
2022-08-30T00:30:41.881Z,12.80
2022-08-30T00:33:11.755Z,14.00
2022-08-30T00:35:42.068Z,13.70
2022-08-30T00:38:12.432Z,14.40
2022-08-30T00:40:44.324Z,13.50
2022-08-30T00:43:27.767Z,13.20
2022-08-30T00:45:58.035Z,12.90
2022-08-30T00:48:26.743Z,13.30
2022-08-30T00:51:00.333Z,12.60
2022-08-30T00:53:34.043Z,13.10
2022-08-30T00:56:05.058Z,12.70
2022-08-30T00:58:43.730Z,12.90
2022-08-30T01:01:13.856Z,13.40
2022-08-30T01:03:44.724Z,13.30
2022-08-30T01:06:15.412Z,12.40
2022-08-30T01:08:46.589Z,13.00
2022-08-30T01:11:19.980Z,11.80
2022-08-30T01:13:51.827Z,12.10
2022-08-30T01:16:22.643Z,13.30
2022-08-30T01:18:56.099Z,13.00
2022-08-30T01:21:51.739Z,14.10
2022-08-30T01:24:21.572Z,13.10
2022-08-30T01:26:51.376Z,13.10
2022-08-30T01:29:23.476Z,12.90
2022-08-30T01:31:52.132Z,12.50
2022-08-30T01:34:21.669Z,12.90
2022-08-30T01:36:51.441Z,13.10
2022-08-30T01:39:20.820Z,12.50
2022-08-30T01:41:49.767Z,12.70
2022-08-30T01:44:18.484Z,12.20
2022-08-30T01:46:48.949Z,12.60
2022-08-30T01:49:27.652Z,11.70
2022-08-30T01:52:00.753Z,11.50
2022-08-30T01:54:33.234Z,10.60
2022-08-30T01:57:10.233Z,12.80
2022-08-30T01:59:43.358Z,12.50
2022-08-30T02:02:12.354Z,11.30
2022-08-30T02:04:42.181Z,11.10
2022-08-30T02:07:10.617Z,10.00
2022-08-30T02:09:39.993Z,10.50
2022-08-30T02:12:09.626Z,11.30
2022-08-30T02:14:39.165Z,10.60
2022-08-30T02:17:10.809Z,11.20
2022-08-30T02:19:41.017Z,10.10
2022-08-30T02:22:09.814Z,10.10
2022-08-30T02:24:38.760Z,10.70
2022-08-30T02:27:08.536Z,10.40
2022-08-30T02:29:37.713Z,10.90
2022-08-30T02:32:06.214Z,11.70
2022-08-30T02:34:35.025Z,11.00
2022-08-30T02:37:04.693Z,12.20
2022-08-30T02:39:32.289Z,11.20
2022-08-30T02:42:01.217Z,10.60
2022-08-30T02:44:29.981Z,10.50
2022-08-30T02:46:58.858Z,11.20
2022-08-30T02:49:33.663Z,10.90
2022-08-30T02:52:05.364Z,10.40
2022-08-30T02:54:34.281Z,9.30
2022-08-30T02:57:04.575Z,10.00
2022-08-30T02:59:33.622Z,9.90
2022-08-30T03:02:02.316Z,10.40
2022-08-30T03:04:31.105Z,11.20
2022-08-30T03:06:59.821Z,10.70
2022-08-30T03:09:28.207Z,10.20
2022-08-30T03:11:56.554Z,10.70
2022-08-30T03:14:25.260Z,10.40
2022-08-30T03:16:54.547Z,10.40
2022-08-30T03:19:22.825Z,10.70
2022-08-30T03:21:51.678Z,10.20
2022-08-30T03:24:20.935Z,10.20
2022-08-30T03:26:49.607Z,11.00
2022-08-30T03:29:18.408Z,10.40
2022-08-30T03:31:53.166Z,15.00
2022-08-30T03:34:25.041Z,12.50
2022-08-30T03:36:55.987Z,12.90
2022-08-30T03:39:25.029Z,12.10
2022-08-30T03:41:54.045Z,10.90
2022-08-30T03:44:23.175Z,10.50
2022-08-30T03:46:52.838Z,10.00
2022-08-30T03:49:21.815Z,10.50
2022-08-30T03:51:51.729Z,11.40
2022-08-30T03:54:20.801Z,11.50
2022-08-30T03:56:49.458Z,11.50
2022-08-30T03:59:18.590Z,12.10
2022-08-30T04:01:47.598Z,12.50
2022-08-30T04:04:20.733Z,11.40
2022-08-30T04:06:50.825Z,10.90
2022-08-30T04:09:19.763Z,12.10
2022-08-30T04:11:48.045Z,11.50
2022-08-30T04:14:17.757Z,12.50
2022-08-30T04:16:45.508Z,12.00
2022-08-30T04:19:15.150Z,11.20
2022-08-30T04:21:44.565Z,11.10
2022-08-30T04:24:14.890Z,11.90
2022-08-30T04:26:43.745Z,10.80
2022-08-30T04:29:18.138Z,11.40
2022-08-30T04:31:47.050Z,10.40
2022-08-30T04:34:15.809Z,10.30
2022-08-30T04:36:48.297Z,10.60
2022-08-30T04:39:21.088Z,11.00
2022-08-30T04:41:49.964Z,10.70
2022-08-30T04:44:19.374Z,11.00
2022-08-30T04:46:48.412Z,11.30
2022-08-30T04:49:16.732Z,11.20
2022-08-30T04:51:46.977Z,11.90
2022-08-30T04:54:16.208Z,11.70
2022-08-30T04:56:45.234Z,11.50
2022-08-30T04:59:14.146Z,10.30
2022-08-30T05:01:45.286Z,10.50
2022-08-30T05:04:16.170Z,10.90
2022-08-30T05:06:45.424Z,11.30
2022-08-30T05:09:15.859Z,11.10
2022-08-30T05:11:44.765Z,11.20
2022-08-30T05:14:12.384Z,11.50
2022-08-30T05:16:41.723Z,11.30
2022-08-30T05:19:10.402Z,11.50
2022-08-30T05:21:40.594Z,11.60
2022-08-30T05:24:10.513Z,11.80
2022-08-30T05:26:39.613Z,12.40
2022-08-30T05:29:08.555Z,11.40
2022-08-30T05:31:37.484Z,11.70
2022-08-30T05:34:06.320Z,11.90
2022-08-30T05:36:37.428Z,11.90
2022-08-30T05:39:07.919Z,11.60
2022-08-30T05:41:38.668Z,12.00
2022-08-30T05:44:11.485Z,11.80
2022-08-30T05:46:45.882Z,11.70
2022-08-30T05:49:15.272Z,12.70
2022-08-30T05:51:44.719Z,12.90
2022-08-30T05:54:14.845Z,12.90
2022-08-30T05:56:45.955Z,12.50
2022-08-30T05:59:16.133Z,12.20
2022-08-30T06:01:47.294Z,12.10
2022-08-30T06:04:17.068Z,11.70
2022-08-30T06:06:46.107Z,11.00
2022-08-30T06:09:15.970Z,10.80
2022-08-30T06:11:45.984Z,11.20
2022-08-30T06:14:15.133Z,11.00
2022-08-30T06:16:46.999Z,10.30
2022-08-30T06:19:16.978Z,9.80
2022-08-30T06:21:48.882Z,9.10
2022-08-30T06:24:17.814Z,9.50
2022-08-30T06:26:47.689Z,9.20
2022-08-30T06:29:20.811Z,8.80
2022-08-30T06:31:50.256Z,9.00
2022-08-30T06:34:19.685Z,9.00
2022-08-30T06:36:50.176Z,8.60
2022-08-30T06:39:19.397Z,8.90
2022-08-30T06:41:48.040Z,8.10
2022-08-30T06:44:26.103Z,8.20
2022-08-30T06:46:55.491Z,7.50
2022-08-30T06:49:24.917Z,8.20
2022-08-30T06:51:54.098Z,8.20
2022-08-30T06:54:23.707Z,7.50
2022-08-30T06:56:58.616Z,7.80
2022-08-30T06:59:29.113Z,8.10
2022-08-30T07:01:59.533Z,8.40
2022-08-30T07:04:29.569Z,7.20
2022-08-30T07:06:58.982Z,7.70
2022-08-30T07:09:28.025Z,7.10
2022-08-30T07:12:01.682Z,6.80
2022-08-30T07:14:30.378Z,5.90
2022-08-30T07:17:00.406Z,6.20
2022-08-30T07:19:29.393Z,6.70
2022-08-30T07:21:58.399Z,7.00
2022-08-30T07:24:27.301Z,7.00
2022-08-30T07:26:57.552Z,7.00
2022-08-30T07:29:26.928Z,7.20
2022-08-30T07:31:56.244Z,7.50
2022-08-30T07:34:26.924Z,7.10
2022-08-30T07:36:57.617Z,7.60
2022-08-30T07:39:25.978Z,7.40
2022-08-30T07:41:56.998Z,6.40
2022-08-30T07:44:26.209Z,7.00
2022-08-30T07:46:55.384Z,7.80
2022-08-30T07:49:23.542Z,7.90
2022-08-30T07:51:54.034Z,7.50
2022-08-30T07:54:23.382Z,8.20
2022-08-30T07:56:57.520Z,6.80
2022-08-30T07:59:27.494Z,7.50
2022-08-30T08:01:57.107Z,7.10
2022-08-30T08:04:28.924Z,7.90
2022-08-30T08:06:59.450Z,7.40
2022-08-30T08:09:27.992Z,6.40
2022-08-30T08:11:56.974Z,6.70
2022-08-30T08:14:26.322Z,6.80
2022-08-30T08:16:57.666Z,6.40
2022-08-30T08:19:28.914Z,6.70
2022-08-30T08:22:19.594Z,6.30
2022-08-30T08:24:50.195Z,6.40
2022-08-30T08:27:19.257Z,6.60
2022-08-30T08:29:48.668Z,6.20
2022-08-30T08:32:18.917Z,6.40
2022-08-30T08:34:49.283Z,6.30
2022-08-30T08:37:18.454Z,6.30
2022-08-30T08:39:50.554Z,6.40
2022-08-30T08:42:36.055Z,6.10
2022-08-30T08:45:12.000Z,6.20
2022-08-30T08:48:07.227Z,6.60
2022-08-30T08:50:37.122Z,6.50
2022-08-30T08:53:49.398Z,6.20
2022-08-30T08:56:22.445Z,6.40
2022-08-30T08:58:55.533Z,6.10
2022-08-30T09:01:30.502Z,6.10
2022-08-30T09:04:06.259Z,6.60
2022-08-30T09:06:53.696Z,6.20
2022-08-30T09:09:44.664Z,5.40
2022-08-30T09:12:15.398Z,6.40
2022-08-30T09:14:48.042Z,5.90
2022-08-30T09:17:19.217Z,6.50
2022-08-30T09:19:54.240Z,5.90
2022-08-30T09:22:38.468Z,5.70
2022-08-30T09:25:27.428Z,5.90
2022-08-30T09:28:16.636Z,6.10
2022-08-30T09:31:12.547Z,5.70
2022-08-30T09:33:53.819Z,5.80
2022-08-30T09:36:33.097Z,6.00
2022-08-30T09:39:15.236Z,5.70
2022-08-30T09:41:51.086Z,5.80
2022-08-30T09:44:21.377Z,5.90
2022-08-30T09:46:57.893Z,6.10
2022-08-30T09:49:45.322Z,6.00
2022-08-30T09:52:32.092Z,6.30
2022-08-30T09:55:27.753Z,6.40
2022-08-30T09:58:18.855Z,5.60
2022-08-30T10:00:57.142Z,6.20
2022-08-30T10:03:56.042Z,5.50
2022-08-30T10:06:42.193Z,5.40
2022-08-30T10:09:46.364Z,5.60
2022-08-30T10:12:22.989Z,5.70
2022-08-30T10:15:10.653Z,5.90
2022-08-30T10:17:46.343Z,6.00
2022-08-30T10:20:26.583Z,6.10
2022-08-30T10:23:09.121Z,5.90
2022-08-30T10:25:44.368Z,6.20
2022-08-30T10:28:28.080Z,5.40
2022-08-30T10:31:02.337Z,6.10
2022-08-30T10:33:40.179Z,5.90
2022-08-30T10:36:14.421Z,6.00
2022-08-30T10:38:53.436Z,5.80
2022-08-30T10:41:46.973Z,6.20
2022-08-30T10:44:32.782Z,6.60
2022-08-30T10:47:18.552Z,6.20
2022-08-30T10:50:04.413Z,6.60
2022-08-30T10:52:55.356Z,6.70
2022-08-30T10:55:30.026Z,6.40
2022-08-30T10:58:04.463Z,6.50
2022-08-30T11:01:00.860Z,6.00
2022-08-30T11:04:20.698Z,7.20
2022-08-30T11:07:18.263Z,7.00
2022-08-30T11:10:05.445Z,6.80
2022-08-30T11:12:38.821Z,4.60
2022-08-30T11:15:21.439Z,4.60
2022-08-30T11:18:01.336Z,4.90
2022-08-30T11:20:45.908Z,4.20
2022-08-30T11:23:26.945Z,5.80
2022-08-30T11:26:20.657Z,4.30
2022-08-30T11:28:51.003Z,2.40
2022-08-30T11:31:18.383Z,1.30
2022-08-30T11:33:52.985Z,1.50
2022-08-30T11:36:37.455Z,1.20
2022-08-30T11:52:27.102Z,1.70
2022-08-30T11:55:56.451Z,2.00
2022-08-30T11:59:02.872Z,1.90
2022-08-30T12:02:04.675Z,2.10
2022-08-30T12:05:16.504Z,2.00
2022-08-30T12:08:28.654Z,2.10
2022-08-30T12:11:59.252Z,1.80
2022-08-30T12:15:20.578Z,2.00
2022-08-30T12:18:36.488Z,1.80
2022-08-30T12:22:03.715Z,1.70
2022-08-30T12:25:24.914Z,1.60
2022-08-30T12:28:42.148Z,1.80
2022-08-30T12:32:21.795Z,1.90
2022-08-30T12:35:59.007Z,2.00
2022-08-30T12:39:14.633Z,2.20
2022-08-30T12:43:24.661Z,2.50
2022-08-30T12:46:58.860Z,2.10
2022-08-30T12:50:26.706Z,2.20
2022-08-30T12:53:56.597Z,2.30
2022-08-30T13:01:00.286Z,2.10
2022-08-30T13:03:58.789Z,2.60
2022-08-30T13:07:40.782Z,2.10
2022-08-30T13:56:14.691Z,3.00
2022-08-30T14:05:03.012Z,3.70
2022-08-30T14:07:40.229Z,3.00
2022-08-30T14:10:46.475Z,3.30
2022-08-30T14:16:47.834Z,3.40
2022-08-30T14:19:39.751Z,3.50
2022-08-30T14:22:30.328Z,3.10
2022-08-30T14:25:16.757Z,3.30
2022-08-30T14:27:54.181Z,3.20
2022-08-30T14:30:32.511Z,3.30
2022-08-30T14:33:36.507Z,3.20
2022-08-30T14:36:17.448Z,3.10
2022-08-30T14:39:15.395Z,3.50
2022-08-30T14:41:55.740Z,2.90
2022-08-30T14:44:56.051Z,3.40
2022-08-30T14:47:39.907Z,3.00
2022-08-30T14:50:18.806Z,3.20
2022-08-30T14:52:52.840Z,3.70
2022-08-30T14:55:23.648Z,3.90
2022-08-30T14:58:33.172Z,3.30
2022-08-30T15:01:19.783Z,3.20
2022-08-30T15:04:07.918Z,3.30
2022-08-30T15:07:02.909Z,3.60
2022-08-30T15:09:44.197Z,3.20
2022-08-30T15:12:59.007Z,3.10
2022-08-30T15:15:51.971Z,3.20
2022-08-30T15:18:36.730Z,3.10
2022-08-30T15:21:51.857Z,2.80
2022-08-30T15:25:04.411Z,2.90
2022-08-30T15:27:53.637Z,2.90
2022-08-30T15:30:50.963Z,3.20
2022-08-30T15:34:20.322Z,3.20
2022-08-30T15:37:24.764Z,3.30
2022-08-30T15:40:32.623Z,3.50
2022-08-30T15:43:25.587Z,3.10
2022-08-30T15:47:17.948Z,3.20
2022-08-30T15:50:44.000Z,3.40
2022-08-30T15:53:41.918Z,3.80
2022-08-30T15:56:46.977Z,3.50
2022-08-30T16:00:27.940Z,3.50
2022-08-30T16:04:24.370Z,3.90
2022-08-30T16:08:00.367Z,3.70
2022-08-30T16:11:29.966Z,3.40
2022-08-30T16:14:40.917Z,3.60
2022-08-30T16:18:16.004Z,4.00
2022-08-30T16:40:14.390Z,4.30
2022-08-30T16:43:11.658Z,4.00
2022-08-30T16:46:05.735Z,4.20
2022-08-30T16:49:05.973Z,4.20
2022-08-30T16:52:04.577Z,3.50
2022-08-30T16:55:03.630Z,3.90
2022-08-30T16:58:33.175Z,4.30
2022-08-30T17:01:45.130Z,4.60
2022-08-30T17:04:52.325Z,4.80
2022-08-30T17:08:08.502Z,7.30
2022-08-30T17:11:22.255Z,8.10
2022-08-30T17:14:32.912Z,5.20
2022-08-30T17:18:12.526Z,4.40
2022-08-30T18:11:14.324Z,5.30
2022-08-30T18:18:19.505Z,5.50
2022-08-30T18:21:40.693Z,5.60
2022-08-30T18:25:31.750Z,5.50
2022-08-30T18:28:34.284Z,5.70
2022-08-30T18:32:01.692Z,5.70
2022-08-30T18:35:28.608Z,5.00
2022-08-30T18:39:05.786Z,5.50
2022-08-30T18:42:41.474Z,5.80
2022-08-30T19:17:22.183Z,6.80
2022-08-30T19:20:23.706Z,5.70
2022-08-30T19:23:13.173Z,5.00
2022-08-30T19:26:12.673Z,4.80
2022-08-30T19:29:25.554Z,5.40
2022-08-30T19:32:57.782Z,5.90
2022-08-30T19:36:12.027Z,6.20
2022-08-30T19:39:46.802Z,5.70
2022-08-30T19:43:04.658Z,5.60
2022-08-30T19:46:07.531Z,5.30
2022-08-30T19:49:30.651Z,5.90
2022-08-30T19:53:25.398Z,6.10
2022-08-30T19:56:40.860Z,5.90
2022-08-30T19:59:59.185Z,6.20
2022-08-30T20:42:47.661Z,5.90
2022-08-30T20:46:33.897Z,6.10
2022-08-30T20:50:26.773Z,6.00
2022-08-30T20:54:09.309Z,6.00
2022-08-30T21:12:21.300Z,6.40
2022-08-30T21:15:38.113Z,6.00
2022-08-30T21:18:34.680Z,5.10
2022-08-30T21:22:16.023Z,5.10
2022-08-30T21:25:36.919Z,5.70
2022-08-30T21:29:15.904Z,7.20
2022-08-30T21:32:21.451Z,7.60
2022-08-30T21:57:18.280Z,7.60
2022-08-30T22:00:57.846Z,7.40
2022-08-30T22:04:08.322Z,7.60
2022-08-30T22:07:33.217Z,7.60
2022-08-30T22:11:11.750Z,7.80
2022-08-30T22:14:48.566Z,8.40
2022-08-30T22:18:25.839Z,7.80
2022-08-30T22:21:48.745Z,10.80
2022-08-30T22:25:30.923Z,12.20
2022-08-30T22:59:58.613Z,10.40
2022-08-30T23:03:33.123Z,11.50
2022-08-30T23:06:50.028Z,10.70
2022-08-30T23:12:46.544Z,12.10
2022-08-30T23:16:11.856Z,13.60
2022-08-30T23:19:25.680Z,11.70
2022-08-30T23:22:21.062Z,12.00
2022-08-30T23:25:41.478Z,9.60
